Tweed New Haven Airport
KHVN : now visible

Airfield :











YOU CAN JOIN US ON...

 
LOGIN :

Register | Disclaimer

   EN    FR    IT 

 









Legend :    VFR   Marginal VFR   IFR   Intensive IFR   Very Intensive IFR
Visi :
Ceiling :
>= 8 km
>= 3000ft
5 to 8 km
1000 to 3000 ft
1500m to 5 km
500 to 1000 ft
800 to 1500m
200 to 500 ft
< 800m
< 200 ft
Symbols :   Thunderstorms  Fog  Heavy snow  Heavy precipitations  Wind > 20 kt






- Airport Elevation : 12 ft
- IATA code : HVN


KHVN - Tweed New Haven

CURRENT METAR :
  • 071853Z 20009G17KT 10SM FEW070 16/03 A2982 RMK AO2 SLP096 T01560033

EXPIRED METARs :
  • 071753Z 20012G17KT 10SM FEW070 15/02 A2985 RMK AO2 SLP106 T01500022 10150 20111 58035
  • 071653Z 20008KT 10SM SCT060 14/02 A2988 RMK AO2 SLP119 T01390022

TAF N/A



MET'MAP, your aeronautical weather chart ! - Copyright ORBIFLY December 2007 - Disclaimer

ORBIFLY MET'MAP TEAM :

Programming & Development : Alexandra Zaïnal
Concept & original design : Baudouin d'Aumeries
Assistance for programming : Marc-Olivier Méhu
Technical & hardware support : Manuel Goepfert

Contact : metmap@orbifly.com




SOURCES & CREDITS :

   NOAA       Earth
Advisory